createdAt,value
2023-01-08T00:03:31.974Z,1.75
2023-01-08T00:08:34.192Z,2.67
2023-01-08T00:13:42.046Z,2.20
2023-01-08T00:18:44.961Z,2.80
2023-01-08T00:23:46.798Z,2.28
2023-01-08T00:28:48.440Z,2.15
2023-01-08T00:33:50.062Z,2.90
2023-01-08T00:38:51.726Z,2.40
2023-01-08T00:43:53.328Z,2.50
2023-01-08T00:48:55.000Z,2.20
2023-01-08T00:53:59.665Z,2.67
2023-01-08T00:59:01.379Z,2.42
2023-01-08T01:04:03.225Z,1.80
2023-01-08T01:09:04.849Z,2.40
2023-01-08T01:14:06.474Z,2.20
2023-01-08T01:19:08.429Z,2.03
2023-01-08T01:24:12.631Z,2.13
2023-01-08T01:29:14.272Z,2.05
2023-01-08T01:34:16.046Z,1.80
2023-01-08T01:39:19.879Z,1.67
2023-01-08T01:44:41.448Z,1.60
2023-01-08T01:49:49.987Z,1.90
2023-01-08T01:54:52.480Z,1.88
2023-01-08T01:59:56.416Z,2.05
2023-01-08T02:04:59.599Z,2.28
2023-01-08T02:10:11.556Z,1.50
2023-01-08T02:15:24.339Z,1.65
2023-01-08T02:20:46.504Z,1.88
2023-01-08T02:26:09.414Z,1.90
2023-01-08T02:31:13.176Z,2.00
2023-01-08T02:36:33.457Z,2.08
2023-01-08T02:41:42.151Z,2.00
2023-01-08T02:46:44.817Z,2.63
2023-01-08T02:51:53.763Z,1.85
2023-01-08T02:57:03.094Z,2.40
2023-01-08T03:02:05.894Z,2.35
2023-01-08T03:07:07.590Z,1.77
2023-01-08T03:12:38.219Z,2.50
2023-01-08T03:17:45.235Z,1.90
2023-01-08T03:22:50.864Z,2.05
2023-01-08T03:27:57.660Z,1.58
2023-01-08T03:33:01.297Z,1.92
2023-01-08T03:38:40.642Z,1.92
2023-01-08T03:43:42.313Z,1.80
2023-01-08T03:48:44.926Z,2.55
2023-01-08T03:53:47.396Z,2.10
2023-01-08T03:58:49.094Z,1.88
2023-01-08T04:03:50.769Z,1.58
2023-01-08T04:08:55.211Z,1.73
2023-01-08T04:13:56.845Z,2.15
2023-01-08T04:18:58.479Z,1.85
2023-01-08T04:24:00.301Z,1.50
2023-01-08T04:29:04.942Z,1.38
2023-01-08T04:34:06.613Z,1.77
2023-01-08T04:39:08.596Z,1.75
2023-01-08T04:44:10.265Z,1.70
2023-01-08T04:49:12.453Z,1.45
2023-01-08T04:54:14.173Z,1.92
2023-01-08T04:59:15.795Z,1.92
2023-01-08T05:04:17.539Z,2.22
2023-01-08T05:09:19.171Z,1.50
2023-01-08T05:14:20.860Z,1.92
2023-01-08T05:19:22.593Z,1.67
2023-01-08T05:24:24.360Z,1.48
2023-01-08T05:29:25.949Z,1.73
2023-01-08T05:34:27.611Z,1.60
2023-01-08T05:39:29.344Z,2.00
2023-01-08T05:44:31.054Z,1.63
2023-01-08T05:49:32.730Z,1.80
2023-01-08T05:54:34.397Z,1.85
2023-01-08T05:59:36.009Z,1.80
2023-01-08T06:04:37.689Z,1.63
2023-01-08T06:09:39.372Z,1.75
2023-01-08T06:14:40.984Z,1.35
2023-01-08T06:19:42.617Z,2.35
2023-01-08T06:24:44.291Z,1.85
2023-01-08T06:29:45.942Z,1.83
2023-01-08T06:34:47.650Z,2.15
2023-01-08T06:39:49.343Z,2.63
2023-01-08T06:44:51.040Z,1.65
2023-01-08T06:49:52.739Z,1.88
2023-01-08T06:54:54.328Z,2.05
2023-01-08T06:59:55.958Z,1.85
2023-01-08T07:04:57.614Z,2.15
2023-01-08T07:09:59.209Z,1.90
2023-01-08T07:15:01.872Z,2.00
2023-01-08T07:20:03.790Z,1.70
2023-01-08T07:25:06.028Z,2.30
2023-01-08T07:30:12.829Z,2.22
2023-01-08T07:35:19.831Z,2.20
2023-01-08T07:40:21.957Z,2.20
2023-01-08T07:45:23.694Z,2.30
2023-01-08T07:50:26.338Z,2.08
2023-01-08T07:55:29.792Z,2.60
2023-01-08T08:00:31.493Z,2.53
2023-01-08T08:05:34.110Z,2.67
2023-01-08T08:10:35.789Z,2.35
2023-01-08T08:15:38.799Z,1.92
2023-01-08T08:20:40.399Z,2.60
2023-01-08T08:25:42.809Z,2.53
2023-01-08T08:30:44.509Z,2.97
2023-01-08T08:35:50.563Z,2.83
2023-01-08T08:40:52.924Z,2.17
2023-01-08T08:45:57.796Z,2.28
2023-01-08T08:50:59.477Z,2.60
2023-01-08T08:56:01.344Z,2.05
2023-01-08T09:01:04.235Z,1.92
2023-01-08T09:06:06.311Z,2.72
2023-01-08T09:11:08.006Z,3.33
2023-01-08T09:16:09.713Z,1.80
2023-01-08T09:21:11.752Z,1.92
2023-01-08T09:26:13.421Z,2.38
2023-01-08T09:31:15.097Z,1.73
2023-01-08T09:36:17.050Z,1.80
2023-01-08T09:41:26.821Z,1.83
2023-01-08T09:46:29.378Z,2.60
2023-01-08T09:51:36.650Z,2.38
2023-01-08T09:56:38.654Z,2.20
2023-01-08T10:01:41.335Z,2.13
2023-01-08T10:06:57.115Z,2.35
2023-01-08T10:12:02.569Z,1.98
2023-01-08T10:17:23.857Z,2.40
2023-01-08T10:22:31.933Z,2.40
2023-01-08T10:27:45.965Z,2.05
2023-01-08T10:32:56.094Z,2.42
2023-01-08T10:37:58.066Z,1.90
2023-01-08T10:43:08.642Z,2.40
2023-01-08T10:48:18.437Z,2.40
2023-01-08T10:53:28.271Z,2.85
2023-01-08T10:58:30.842Z,2.25
2023-01-08T11:03:33.045Z,2.47
2023-01-08T11:08:34.800Z,3.17
2023-01-08T11:13:36.783Z,3.08
2023-01-08T11:18:51.768Z,2.40
2023-01-08T11:24:22.733Z,2.30
2023-01-08T11:29:38.970Z,2.65
2023-01-08T11:34:59.463Z,2.58
2023-01-08T11:40:01.345Z,2.50
2023-01-08T11:45:17.877Z,1.88
2023-01-08T11:50:29.055Z,2.58
2023-01-08T11:55:35.543Z,2.25
2023-01-08T12:01:15.060Z,2.13
2023-01-08T12:06:37.052Z,2.08
2023-01-08T12:11:47.390Z,1.98
2023-01-08T12:16:59.414Z,1.67
2023-01-08T12:22:16.236Z,2.05
2023-01-08T12:27:40.857Z,2.40
2023-01-08T12:32:55.996Z,2.00
2023-01-08T12:38:11.400Z,2.00
2023-01-08T12:43:27.440Z,1.67
2023-01-08T12:48:33.678Z,2.22
2023-01-08T12:53:49.394Z,1.98
2023-01-08T12:59:08.271Z,2.40
2023-01-08T13:04:11.239Z,2.22
2023-01-08T13:09:23.149Z,1.52
2023-01-08T13:14:27.444Z,2.22
2023-01-08T13:19:38.422Z,1.80
2023-01-08T13:24:42.770Z,1.70
2023-01-08T13:29:50.051Z,1.67
2023-01-08T13:35:16.753Z,2.20
2023-01-08T13:40:43.243Z,1.80
2023-01-08T13:46:08.887Z,1.77
2023-01-08T13:51:44.696Z,1.80
2023-01-08T13:56:53.970Z,1.60
2023-01-08T14:01:57.097Z,1.88
2023-01-08T14:07:12.718Z,2.20
2023-01-08T14:12:20.340Z,1.60
2023-01-08T14:17:31.398Z,1.65
2023-01-08T14:22:34.899Z,2.40
2023-01-08T14:27:36.640Z,2.20
2023-01-08T14:32:43.485Z,2.20
2023-01-08T14:37:45.198Z,2.53
2023-01-08T14:42:47.540Z,2.33
2023-01-08T14:47:56.699Z,2.45
2023-01-08T14:53:26.835Z,2.30
2023-01-08T14:58:35.228Z,2.67
2023-01-08T15:03:40.459Z,2.42
2023-01-08T15:08:44.634Z,1.92
2023-01-08T15:13:48.291Z,6.28
2023-01-08T15:19:18.043Z,2.42
2023-01-08T15:24:29.317Z,2.10
2023-01-08T15:29:37.153Z,2.78
2023-01-08T15:34:38.791Z,2.38
2023-01-08T15:39:41.125Z,2.80
2023-01-08T15:44:42.761Z,2.83
2023-01-08T15:49:44.686Z,2.85
2023-01-08T15:54:46.416Z,3.00
2023-01-08T15:59:48.116Z,2.78
2023-01-08T16:04:54.482Z,2.53
2023-01-08T16:09:56.493Z,2.55
2023-01-08T16:14:58.217Z,2.20
2023-01-08T16:19:59.880Z,2.65
2023-01-08T16:25:01.717Z,2.40
2023-01-08T16:30:04.620Z,2.53
2023-01-08T16:35:06.879Z,2.58
2023-01-08T16:40:10.040Z,2.67
2023-01-08T16:45:11.837Z,2.53
2023-01-08T16:50:13.534Z,2.40
2023-01-08T16:55:15.208Z,2.60
2023-01-08T17:00:17.256Z,3.25
2023-01-08T17:05:18.948Z,2.80
2023-01-08T17:10:22.828Z,2.72
2023-01-08T17:15:24.591Z,2.20
2023-01-08T17:20:26.266Z,2.95
2023-01-08T17:25:28.068Z,2.38
2023-01-08T17:30:29.701Z,1.92
2023-01-08T17:35:31.443Z,2.03
2023-01-08T17:40:34.464Z,2.60
2023-01-08T17:45:38.628Z,3.17
2023-01-08T17:50:40.606Z,2.67
2023-01-08T17:55:42.363Z,1.90
2023-01-08T18:00:44.060Z,2.85
2023-01-08T18:05:45.679Z,2.80
2023-01-08T18:10:47.641Z,3.00
2023-01-08T18:15:49.397Z,2.72
2023-01-08T18:20:56.666Z,3.60
2023-01-08T18:26:07.244Z,2.92
2023-01-08T18:31:13.971Z,2.95
2023-01-08T18:36:18.902Z,3.03
2023-01-08T18:41:39.575Z,3.80
2023-01-08T18:46:41.316Z,3.75
2023-01-08T18:51:43.347Z,3.35
2023-01-08T18:56:46.447Z,3.22
2023-01-08T19:01:48.825Z,3.67
2023-01-08T19:06:50.634Z,3.55
2023-01-08T19:11:53.734Z,2.97
2023-01-08T19:16:58.426Z,3.78
2023-01-08T19:22:03.339Z,3.08
2023-01-08T19:27:05.172Z,2.83
2023-01-08T19:32:07.691Z,3.65
2023-01-08T19:37:09.804Z,2.75
2023-01-08T19:42:30.440Z,3.15
2023-01-08T19:47:32.257Z,3.83
2023-01-08T19:52:33.952Z,2.00
2023-01-08T19:57:35.702Z,2.92
2023-01-08T20:02:37.438Z,3.00
2023-01-08T20:07:41.853Z,2.95
2023-01-08T20:12:46.374Z,4.00
2023-01-08T20:17:48.093Z,2.95
2023-01-08T20:22:52.256Z,3.08
2023-01-08T20:27:53.927Z,2.72
2023-01-08T20:32:55.668Z,3.05
2023-01-08T20:37:57.468Z,3.05
2023-01-08T20:42:59.244Z,3.58
2023-01-08T20:48:04.251Z,2.85
2023-01-08T20:53:05.876Z,2.47
2023-01-08T20:58:07.688Z,3.17
2023-01-08T21:03:15.273Z,3.83
2023-01-08T21:08:22.451Z,2.65
2023-01-08T21:13:25.656Z,2.22
2023-01-08T21:18:33.673Z,2.72
2023-01-08T21:23:35.661Z,2.50
2023-01-08T21:28:38.908Z,3.55
2023-01-08T21:33:41.557Z,3.00
2023-01-08T21:38:44.257Z,3.22
2023-01-08T21:44:06.837Z,2.80
2023-01-08T21:49:08.520Z,2.60
2023-01-08T21:54:10.234Z,2.78
2023-01-08T21:59:12.033Z,2.20
2023-01-08T22:04:13.761Z,1.48
2023-01-08T22:09:15.522Z,0.93
2023-01-08T22:14:17.494Z,1.00
2023-01-08T22:19:19.085Z,0.93
2023-01-08T22:24:20.909Z,1.08
2023-01-08T22:29:22.619Z,0.95
2023-01-08T22:34:24.350Z,1.00
2023-01-08T22:39:26.079Z,0.80
2023-01-08T22:44:27.750Z,1.45
2023-01-08T22:49:29.376Z,1.23
2023-01-08T22:54:31.098Z,1.23
2023-01-08T22:59:32.838Z,0.80
2023-01-08T23:04:34.560Z,0.88
2023-01-08T23:09:36.205Z,0.80
2023-01-08T23:14:40.137Z,0.88
2023-01-08T23:19:42.185Z,1.13
2023-01-08T23:24:43.888Z,0.80
2023-01-08T23:29:45.568Z,0.77
2023-01-08T23:34:48.149Z,1.23
2023-01-08T23:39:49.889Z,0.65
2023-01-08T23:44:51.530Z,1.20
2023-01-08T23:49:53.556Z,0.93
2023-01-08T23:54:55.239Z,1.35
2023-01-08T23:59:56.908Z,1.55
